Puckett, Mississippi
Current Conditions -  °F | °C
As of 6:54 PM on Sunday 23 Nov 2014 (Local Time) from KJAN Reporting Station
Clear Clear  
Wind Chill: 65°   Ceiling: Unl
Heat Index: 65°   Visibility: 10mi
Dew Point: 56°   Wind: 12mph
Humidity: 73%   Direction: 180°S
Pressure: 29.58"   Gusts: NA
Location:  32.08°N, 89.78°W
Report Text: KJAN 240054Z 18010KT 10SM CLR 18/13 A2958 RMK AO2 SLP012 T01830133
Loading
Personal Weather Stations






























Interactive Weather Map New forecast layout! Learn more

10-Day Weather Forecast

Advertisements
Track Severe Weather on mobile